Time;durP1;ratioP1;P1;durP2;ratioP2;P2;SDS_P1;SDS_P2;PMS_P1;PMS_P2;Temp;Humidity;BMP_temperature;BMP_pressure;BME280_temperature;BME280_humidity;BME280_pressure;Samples;Min_cycle;Max_cycle;Signal;HPM_P1;HPM_P2
2022/10/03 00:00:39;;;;;;;1.98;0.40;;;;;;;10.80;63.23;100962.97;4911410;28;97558;-67
2022/10/03 00:03:20;;;;;;;0.82;0.22;;;;;;;10.85;63.54;100969.50;4902249;28;97754;-64
2022/10/03 00:06:23;;;;;;;4.15;0.40;;;;;;;10.91;63.62;100965.75;4925380;28;98747;-65
2022/10/03 00:09:23;;;;;;;5.38;0.55;;;;;;;10.98;63.39;100977.16;4911941;28;97486;-65
2022/10/03 00:12:34;;;;;;;1.88;0.45;;;;;;;11.05;63.42;100977.75;4902004;28;98690;-65
2022/10/03 00:15:20;;;;;;;2.33;0.30;;;;;;;11.09;63.23;100972.66;4905517;28;97975;-65
2022/10/03 00:18:11;;;;;;;4.00;0.47;;;;;;;11.14;63.22;100972.69;4905373;28;97347;-67
2022/10/03 00:21:00;;;;;;;4.07;0.40;;;;;;;11.18;63.52;100976.47;4919372;28;97598;-68
2022/10/03 00:23:35;;;;;;;2.15;0.30;;;;;;;11.18;63.85;100980.00;4925747;28;97348;-65
2022/10/03 00:26:32;;;;;;;1.67;0.40;;;;;;;11.20;63.18;100980.56;4945913;28;97872;-67
2022/10/03 00:29:17;;;;;;;1.98;0.22;;;;;;;11.23;63.81;100990.81;4904981;28;97722;-65
2022/10/03 00:32:22;;;;;;;1.88;0.40;;;;;;;11.23;63.13;100993.50;4934577;28;97654;-67
2022/10/03 00:35:09;;;;;;;2.20;0.40;;;;;;;11.24;63.66;100988.97;4921996;28;100024;-67
2022/10/03 00:37:55;;;;;;;3.60;0.30;;;;;;;11.23;63.44;100996.22;4938952;28;97702;-67
2022/10/03 00:40:56;;;;;;;1.02;0.30;;;;;;;11.20;63.42;100988.66;4919539;28;97922;-67
2022/10/03 00:44:05;;;;;;;8.43;0.38;;;;;;;11.20;63.31;100995.91;4916767;28;97765;-65
2022/10/03 00:46:44;;;;;;;3.38;0.22;;;;;;;11.19;63.51;100995.09;4903515;28;97721;-67
2022/10/03 00:49:57;;;;;;;3.60;0.50;;;;;;;11.16;63.19;100995.66;4896050;28;97921;-67
2022/10/03 00:52:50;;;;;;;;;;;;;;;11.10;62.96;101006.66;4916457;28;97433;-65
2022/10/03 00:55:35;;;;;;;3.93;0.60;;;;;;;11.10;63.16;101003.94;4917908;28;97828;-64
2022/10/03 00:58:36;;;;;;;3.42;0.35;;;;;;;11.11;63.13;101014.47;4901665;28;97823;-67
2022/10/03 01:01:29;;;;;;;2.92;0.40;;;;;;;11.11;63.45;101010.97;4879442;28;98945;-67
2022/10/03 01:04:22;;;;;;;2.05;0.28;;;;;;;11.14;63.55;101011.25;4922042;28;98164;-65
2022/10/03 01:07:19;;;;;;;3.50;0.22;;;;;;;11.12;63.14;101007.19;4896508;28;107833;-64
2022/10/03 01:09:55;;;;;;;2.90;0.40;;;;;;;11.14;63.73;100999.66;4916915;28;97958;-65
2022/10/03 01:12:56;;;;;;;4.30;0.28;;;;;;;11.15;63.17;101001.28;4935306;28;97898;-67
2022/10/03 01:15:52;;;;;;;7.15;0.52;;;;;;;11.17;63.85;101007.25;4915619;28;98003;-68
2022/10/03 01:18:36;;;;;;;1.45;0.30;;;;;;;11.18;63.72;101003.47;4922763;28;97818;-65
2022/10/03 01:21:26;;;;;;;2.53;0.32;;;;;;;11.19;63.76;101003.19;4909086;28;99906;-67
2022/10/03 01:24:29;;;;;;;4.30;0.40;;;;;;;11.19;63.43;101010.50;4921524;28;98044;-68
2022/10/03 01:27:05;;;;;;;3.63;0.32;;;;;;;11.20;63.90;100996.75;4930297;28;97283;-65
2022/10/03 01:30:22;;;;;;;2.50;0.22;;;;;;;11.18;63.52;101011.56;4882601;28;97626;-65
2022/10/03 01:33:03;;;;;;;4.78;0.40;;;;;;;11.19;63.49;101002.41;4927015;28;97868;-67
2022/10/03 01:35:48;;;;;;;2.45;0.20;;;;;;;11.18;63.43;101009.69;4917402;28;98487;-67
2022/10/03 01:38:44;;;;;;;5.03;0.40;;;;;;;11.19;63.51;101015.88;4906018;28;98943;-67
2022/10/03 01:41:13;;;;;;;2.00;0.22;;;;;;;11.22;64.19;101020.78;4882361;28;97578;-64
2022/10/03 01:43:50;;;;;;;6.55;0.50;;;;;;;11.23;63.99;101008.91;4928975;28;99630;-64
2022/10/03 01:46:45;;;;;;;2.33;0.50;;;;;;;11.23;63.43;101011.59;4890904;28;99352;-65
2022/10/03 01:49:45;;;;;;;0.93;0.20;;;;;;;11.25;63.47;101020.25;4915846;28;98003;-67
2022/10/03 01:52:26;;;;;;;5.45;0.38;;;;;;;11.24;63.77;101024.84;4924177;28;97785;-68
2022/10/03 01:55:04;;;;;;;2.25;0.20;;;;;;;11.28;63.66;101023.25;4920014;28;97795;-64
2022/10/03 01:57:50;;;;;;;3.75;0.40;;;;;;;11.28;63.90;101027.84;4906515;28;97596;-64
2022/10/03 02:00:20;;;;;;;2.42;0.50;;;;;;;11.29;63.88;101029.47;4890109;28;98138;-67
2022/10/03 02:03:07;;;;;;;4.60;0.32;;;;;;;11.30;64.18;101028.38;4885120;28;97624;-65
2022/10/03 02:06:14;;;;;;;1.10;0.17;;;;;;;11.28;63.63;101034.06;4917918;28;97777;-67
2022/10/03 02:08:46;;;;;;;2.47;0.30;;;;;;;11.32;64.16;101034.34;4915489;28;97986;-65
2022/10/03 02:11:28;;;;;;;3.13;0.30;;;;;;;11.30;63.93;101031.91;4931168;28;97964;-67
2022/10/03 02:14:21;;;;;;;2.00;0.40;;;;;;;11.30;63.77;101036.47;4904229;28;97380;-68
2022/10/03 02:17:02;;;;;;;4.18;0.40;;;;;;;11.31;64.33;101038.91;4891968;28;97799;-64
2022/10/03 02:19:50;;;;;;;2.38;0.43;;;;;;;11.32;64.44;101045.16;4924030;28;97721;-65
2022/10/03 02:22:34;;;;;;;4.30;0.50;;;;;;;11.33;63.86;101049.47;4905876;28;99277;-68
2022/10/03 02:25:19;;;;;;;1.80;0.32;;;;;;;11.35;63.67;101051.91;4905139;28;97693;-65
2022/10/03 02:28:04;;;;;;;4.72;0.40;;;;;;;11.35;63.88;101049.19;4940402;28;98207;-64
2022/10/03 02:31:05;;;;;;;3.10;0.30;;;;;;;11.34;63.74;101044.88;4928270;28;98077;-64
2022/10/03 02:34:03;;;;;;;3.63;0.20;;;;;;;11.37;63.91;101049.78;4935108;28;99221;-68
2022/10/03 02:37:07;;;;;;;3.88;0.38;;;;;;;11.38;63.88;101063.00;4924156;28;97464;-64
2022/10/03 02:40:24;;;;;;;3.60;0.50;;;;;;;11.34;63.92;101061.88;4918878;28;97856;-64
2022/10/03 02:43:23;;;;;;;2.80;0.40;;;;;;;11.33;63.83;101065.66;4920148;28;97603;-67
2022/10/03 02:46:44;;;;;;;2.72;0.38;;;;;;;11.31;64.02;101065.91;4923720;28;97781;-64
2022/10/03 02:49:54;;;;;;;4.28;0.73;;;;;;;11.30;63.89;101061.59;4932748;28;98177;-64
2022/10/03 02:53:08;;;;;;;3.15;0.57;;;;;;;11.32;64.03;101069.44;4929013;28;98453;-64
2022/10/03 02:55:57;;;;;;;5.60;0.40;;;;;;;11.31;64.36;101076.69;4924487;28;97599;-65
2022/10/03 02:59:18;;;;;;;4.20;0.55;;;;;;;11.30;64.25;101082.38;4919943;28;99379;-67
2022/10/03 03:02:32;;;;;;;1.00;0.30;;;;;;;11.29;63.96;101084.25;4899589;28;97798;-64
2022/10/03 03:05:35;;;;;;;3.30;0.52;;;;;;;11.31;64.00;101084.00;4928665;28;97729;-65
2022/10/03 03:08:32;;;;;;;1.42;0.30;;;;;;;11.35;64.12;101087.00;4921275;28;97760;-65
2022/10/03 03:11:28;;;;;;;1.50;0.38;;;;;;;11.36;63.83;101096.72;4932385;28;98478;-67
2022/10/03 03:14:28;;;;;;;2.17;0.40;;;;;;;11.34;64.01;101086.19;4918930;28;97209;-67
2022/10/03 03:17:47;;;;;;;3.13;0.40;;;;;;;11.37;63.90;101092.97;4922566;28;100031;-64
2022/10/03 03:20:39;;;;;;;2.03;0.30;;;;;;;11.40;64.16;101087.84;4938013;28;98125;-68
2022/10/03 03:23:17;;;;;;;1.73;0.20;;;;;;;11.42;64.31;101090.28;4880665;28;97834;-64
2022/10/03 03:26:17;;;;;;;1.77;0.30;;;;;;;11.39;63.93;101090.81;4908593;28;98171;-65
2022/10/03 03:29:09;;;;;;;3.95;0.50;;;;;;;11.41;63.82;101085.97;4883009;28;97795;-67
2022/10/03 03:32:08;;;;;;;4.43;0.40;;;;;;;11.44;63.84;101085.47;4905687;28;97670;-64
2022/10/03 03:34:52;;;;;;;5.28;0.40;;;;;;;11.43;63.99;101078.41;4936919;28;97846;-68
2022/10/03 03:37:41;;;;;;;4.13;0.45;;;;;;;11.44;63.89;101082.75;4913445;28;96939;-67
2022/10/03 03:40:13;;;;;;;3.75;0.38;;;;;;;11.47;64.41;101080.34;4924448;28;97694;-67
2022/10/03 03:42:54;;;;;;;2.60;0.30;;;;;;;11.46;63.95;101076.00;4937788;28;97798;-67
2022/10/03 03:45:53;;;;;;;4.43;0.50;;;;;;;11.44;63.83;101080.06;4912489;28;99720;-65
2022/10/03 03:48:51;;;;;;;1.55;0.40;;;;;;;11.45;63.94;101076.28;4903873;28;97918;-65
2022/10/03 03:51:49;;;;;;;2.22;0.30;;;;;;;11.45;64.04;101082.50;4916755;28;100013;-67
2022/10/03 03:54:25;;;;;;;3.95;0.30;;;;;;;11.44;64.04;101090.88;4899061;28;97680;-67
2022/10/03 03:57:20;;;;;;;4.50;0.40;;;;;;;11.43;64.23;101087.31;4914638;28;98956;-65
2022/10/03 04:00:30;;;;;;;3.58;0.30;;;;;;;11.40;64.01;101097.84;4928339;28;97940;-64
2022/10/03 04:03:26;;;;;;;1.02;0.20;;;;;;;11.40;64.15;101090.56;4921948;28;99654;-67
2022/10/03 04:06:04;;;;;;;3.40;0.40;;;;;;;11.42;64.13;101093.81;4921073;28;97851;-67
2022/10/03 04:08:50;;;;;;;1.95;0.30;;;;;;;11.41;63.93;101099.47;4929827;28;98201;-65
2022/10/03 04:12:13;;;;;;;4.88;0.52;;;;;;;11.38;63.97;101090.00;4944621;28;97632;-65
2022/10/03 04:15:12;;;;;;;5.13;0.45;;;;;;;11.38;63.63;101098.09;4942181;28;97734;-67
2022/10/03 04:21:58;;;;;;;3.10;0.20;;;;;;;11.37;64.04;101109.97;4904543;28;97711;-64
2022/10/03 04:24:55;;;;;;;2.13;0.40;;;;;;;11.39;64.44;101112.41;4898103;28;97933;-67
2022/10/03 04:27:46;;;;;;;2.30;0.30;;;;;;;11.38;64.09;101108.88;4891456;28;97677;-65
2022/10/03 04:30:18;;;;;;;2.97;0.40;;;;;;;11.41;64.21;101110.28;4918867;28;97908;-64
2022/10/03 04:33:21;;;;;;;2.88;0.45;;;;;;;11.41;64.47;101102.16;4882268;28;98260;-65
2022/10/03 04:36:08;;;;;;;2.77;0.23;;;;;;;11.42;64.32;101112.69;4890372;28;97577;-67
2022/10/03 04:39:29;;;;;;;2.88;0.32;;;;;;;11.40;63.94;101117.56;4922153;28;97754;-64
2022/10/03 04:42:27;;;;;;;3.50;0.30;;;;;;;11.41;64.01;101119.19;4884372;28;98094;-67
2022/10/03 04:45:59;;;;;;;2.00;0.50;;;;;;;11.42;63.93;101118.09;4928935;28;98428;-66
2022/10/03 04:48:49;;;;;;;4.07;0.40;;;;;;;11.43;63.87;101113.50;4904926;28;97800;-64
2022/10/03 04:51:30;;;;;;;1.33;0.40;;;;;;;11.45;64.28;101112.19;4898711;28;98002;-68
2022/10/03 04:54:05;;;;;;;1.20;0.20;;;;;;;11.46;64.11;101110.31;4885603;28;98038;-67
2022/10/03 04:56:56;;;;;;;4.45;0.45;;;;;;;11.48;64.18;101116.28;4896410;28;97864;-67
2022/10/03 04:59:49;;;;;;;1.23;0.20;;;;;;;11.49;64.45;101116.00;4891337;28;97488;-64
2022/10/03 05:02:59;;;;;;;2.42;0.40;;;;;;;11.48;64.20;101105.47;4898667;28;97742;-64
2022/10/03 05:05:29;;;;;;;4.22;0.30;;;;;;;11.50;64.67;101114.91;4893206;28;102780;-64
2022/10/03 05:08:28;;;;;;;6.13;0.47;;;;;;;11.49;63.84;101123.28;4891814;28;97664;-68
2022/10/03 05:11:33;;;;;;;2.90;0.30;;;;;;;11.50;64.16;101120.31;4880468;28;97560;-67
2022/10/03 05:14:02;;;;;;;1.45;0.30;;;;;;;11.50;64.10;101124.91;4896481;28;97705;-68
2022/10/03 05:17:09;;;;;;;3.35;0.32;;;;;;;11.48;64.06;101117.09;4934836;28;98306;-65
2022/10/03 05:20:12;;;;;;;6.03;0.70;;;;;;;11.49;63.86;101126.00;4884553;28;97734;-64
2022/10/03 05:22:59;;;;;;;0.65;0.20;;;;;;;11.48;64.10;101124.38;4932421;28;98658;-64
2022/10/03 05:26:01;;;;;;;5.47;0.30;;;;;;;11.49;63.84;101134.91;4890457;28;97991;-64
2022/10/03 05:29:01;;;;;;;2.60;0.52;;;;;;;11.51;64.00;101131.94;4895342;28;97785;-67
2022/10/03 05:32:16;;;;;;;2.78;0.40;;;;;;;11.51;63.96;101131.94;4923654;28;97753;-67
2022/10/03 05:35:25;;;;;;;0.93;0.20;;;;;;;11.54;63.92;101134.13;4908104;28;97936;-64
2022/10/03 05:38:18;;;;;;;3.13;0.30;;;;;;;11.60;63.72;101140.41;4929251;28;99947;-65
2022/10/03 05:41:21;;;;;;;1.85;0.25;;;;;;;11.61;63.80;101142.81;4928842;28;97757;-64
2022/10/03 05:44:02;;;;;;;1.45;0.30;;;;;;;11.62;63.85;101143.63;4924500;28;99382;-64
2022/10/03 05:46:58;;;;;;;2.45;0.30;;;;;;;11.65;63.90;101148.53;4909975;28;97775;-67
2022/10/03 05:50:04;;;;;;;3.25;0.38;;;;;;;11.65;63.92;101152.03;4919972;28;97744;-67
2022/10/03 05:53:00;;;;;;;2.80;0.40;;;;;;;11.65;63.85;101151.22;4897435;28;98982;-64
2022/10/03 05:55:39;;;;;;;5.20;0.32;;;;;;;11.67;64.05;101158.00;4893262;28;97968;-64
2022/10/03 05:58:27;;;;;;;1.75;0.30;;;;;;;11.74;64.21;101164.00;4915960;28;98257;-68
2022/10/03 06:01:01;;;;;;;2.63;0.40;;;;;;;11.84;63.80;101157.91;4917916;28;100201;-67
2022/10/03 06:03:57;;;;;;;1.42;0.20;;;;;;;11.94;64.04;101167.94;4924839;28;98933;-68
2022/10/03 06:07:02;;;;;;;1.95;0.30;;;;;;;12.04;63.64;101163.44;4890993;28;99034;-65
2022/10/03 06:10:24;;;;;;;4.38;0.40;;;;;;;12.12;63.65;101158.63;4891730;28;98013;-68
2022/10/03 06:13:19;;;;;;;4.60;0.40;;;;;;;12.22;63.67;101161.38;4926376;28;99902;-68
2022/10/03 06:16:44;;;;;;;1.83;0.30;;;;;;;12.23;63.58;101165.72;4909741;28;97851;-65
2022/10/03 06:19:19;;;;;;;3.20;0.43;;;;;;;12.28;63.81;101168.44;4897979;28;97414;-65
2022/10/03 06:22:46;;;;;;;3.97;0.20;;;;;;;12.27;63.47;101164.13;4937651;28;97136;-65
2022/10/03 06:25:59;;;;;;;3.15;0.30;;;;;;;12.30;63.40;101190.66;4903716;28;97940;-65
2022/10/03 06:28:55;;;;;;;;;;;;;;;12.28;63.18;101190.88;4912723;28;97630;-65
2022/10/03 06:31:50;;;;;;;6.20;0.40;;;;;;;12.34;63.52;101201.72;4922880;28;97907;-65
2022/10/03 06:35:02;;;;;;;2.42;0.20;;;;;;;12.34;63.63;101199.03;4948866;28;98185;-68
2022/10/03 06:37:58;;;;;;;1.95;0.20;;;;;;;12.38;63.33;101209.06;4901780;28;97899;-68
2022/10/03 06:40:41;;;;;;;3.28;0.32;;;;;;;12.39;63.59;101220.69;4896214;28;97849;-68
2022/10/03 06:43:24;;;;;;;2.38;0.20;;;;;;;12.38;63.52;101210.94;4922838;28;98007;-68
2022/10/03 06:46:34;;;;;;;2.83;0.28;;;;;;;12.40;63.33;101212.31;4907416;28;97914;-68
2022/10/03 06:49:39;;;;;;;1.73;0.20;;;;;;;12.40;63.24;101216.91;4922388;28;97650;-68
2022/10/03 06:52:51;;;;;;;2.65;0.32;;;;;;;12.41;63.24;101222.03;4903107;28;98130;-68
2022/10/03 06:55:49;;;;;;;12.77;0.40;;;;;;;12.44;63.58;101221.53;4909469;28;98071;-68
2022/10/03 06:59:04;;;;;;;4.32;0.22;;;;;;;12.57;63.16;101220.25;4916847;28;98243;-68
2022/10/03 07:02:28;;;;;;;4.85;0.35;;;;;;;12.80;62.88;101220.91;4907093;28;97671;-67
2022/10/03 07:05:16;;;;;;;1.65;0.50;;;;;;;12.93;62.49;101225.81;4921043;28;99774;-68
2022/10/03 07:08:30;;;;;;;2.83;0.22;;;;;;;12.94;62.78;101216.66;4943022;28;97864;-68
2022/10/03 07:11:27;;;;;;;1.85;0.28;;;;;;;13.02;62.38;101224.25;4907966;28;97936;-68
2022/10/03 07:14:05;;;;;;;6.88;0.60;;;;;;;13.09;62.55;101219.41;4910312;28;97877;-67
2022/10/03 07:16:51;;;;;;;1.77;0.30;;;;;;;13.13;62.66;101219.69;4912820;28;98042;-68
2022/10/03 07:19:29;;;;;;;3.00;0.38;;;;;;;13.15;62.70;101226.44;4909919;28;98012;-67
2022/10/03 07:22:47;;;;;;;1.95;0.20;;;;;;;13.26;62.19;101216.50;4906683;28;97689;-68
2022/10/03 07:25:22;;;;;;;2.92;0.38;;;;;;;13.47;61.70;101218.16;4917557;28;98268;-68
2022/10/03 07:28:05;;;;;;;3.35;0.47;;;;;;;13.56;62.00;101232.00;4909185;28;99546;-68
2022/10/03 07:31:17;;;;;;;2.30;0.35;;;;;;;13.58;61.84;101231.72;4910479;28;98422;-68
2022/10/03 07:34:34;;;;;;;3.92;0.38;;;;;;;13.57;61.91;101233.63;4935999;28;98268;-68
2022/10/03 07:41:13;;;;;;;2.08;0.43;;;;;;;13.79;61.21;101230.66;4942764;28;98386;-68
2022/10/03 07:44:28;;;;;;;2.60;0.30;;;;;;;13.68;61.43;101240.69;4931290;28;97726;-67
2022/10/03 07:47:37;;;;;;;2.45;0.32;;;;;;;13.58;61.83;101240.66;4910429;28;97542;-68
2022/10/03 07:50:50;;;;;;;3.13;0.30;;;;;;;13.63;61.56;101246.09;4914154;28;97738;-68
2022/10/03 07:53:53;;;;;;;1.35;0.30;;;;;;;13.96;61.33;101239.34;4925427;28;98033;-68
2022/10/03 07:57:06;;;;;;;3.95;0.40;;;;;;;13.85;61.43;101247.75;4949301;28;97805;-64
2022/10/03 07:59:51;;;;;;;3.03;0.20;;;;;;;13.69;62.13;101250.44;4942066;28;97922;-65
2022/10/03 08:03:01;;;;;;;2.13;0.45;;;;;;;13.57;62.22;101257.19;4929055;28;100200;-68
2022/10/03 08:06:05;;;;;;;1.30;0.20;;;;;;;13.48;61.88;101262.34;4949576;28;98052;-68
2022/10/03 08:09:05;;;;;;;2.13;0.20;;;;;;;13.45;62.38;101262.84;4933221;28;97392;-64
2022/10/03 08:11:48;;;;;;;2.70;0.40;;;;;;;13.46;62.10;101261.78;4932157;28;98043;-65
2022/10/03 08:15:07;;;;;;;2.20;0.30;;;;;;;13.52;62.22;101258.00;4915564;28;97780;-64
2022/10/03 08:18:22;;;;;;;4.20;0.35;;;;;;;13.66;61.40;101264.53;4927816;28;97518;-64
2022/10/03 08:21:00;;;;;;;1.90;0.20;;;;;;;13.80;61.78;101272.94;4903314;28;99680;-65
2022/10/03 08:24:05;;;;;;;2.35;0.40;;;;;;;14.11;60.74;101265.66;4898205;28;97851;-65
2022/10/03 08:27:21;;;;;;;1.60;0.30;;;;;;;13.94;61.58;101273.22;4937780;28;97996;-65
2022/10/03 08:30:05;;;;;;;1.70;0.30;;;;;;;14.13;60.56;101266.19;4862846;28;98130;-65
2022/10/03 08:33:43;;;;;;;2.67;0.40;;;;;;;14.41;60.27;101270.22;4931411;28;97809;-68
2022/10/03 08:36:59;;;;;;;2.75;0.28;;;;;;;16.51;56.86;101269.91;4877527;28;97569;-65
2022/10/03 08:39:53;;;;;;;2.15;0.40;;;;;;;15.89;58.31;101271.53;4911118;28;98175;-65
2022/10/03 08:42:43;;;;;;;6.35;0.60;;;;;;;16.40;57.79;101274.63;4928727;28;102373;-65
2022/10/03 08:45:46;;;;;;;2.97;0.68;;;;;;;22.44;47.51;101272.16;4927863;28;97901;-65
2022/10/03 08:48:41;;;;;;;9.60;3.13;;;;;;;21.78;50.23;101290.81;4901880;28;97985;-65
2022/10/03 08:51:42;;;;;;;5.25;0.30;;;;;;;20.49;52.56;101297.53;4908905;28;97678;-68
2022/10/03 08:54:41;;;;;;;1.02;0.20;;;;;;;19.65;53.62;101298.19;4951614;28;97933;-69
2022/10/03 08:57:32;;;;;;;1.80;0.25;;;;;;;18.65;55.22;101283.22;4916719;28;97897;-68
2022/10/03 09:00:22;;;;;;;2.13;0.20;;;;;;;17.85;56.40;101286.25;4942919;28;97727;-68
2022/10/03 09:03:10;;;;;;;1.55;0.30;;;;;;;17.28;56.44;101296.28;4909313;28;100408;-68
2022/10/03 09:06:18;;;;;;;6.60;1.58;;;;;;;16.84;56.66;101290.00;4909504;28;97912;-68
2022/10/03 09:09:24;;;;;;;4.10;0.73;;;;;;;16.42;57.34;101290.66;4936935;28;97915;-68
2022/10/03 09:12:55;;;;;;;5.43;1.02;;;;;;;16.10;57.52;101292.03;4915278;28;97894;-68
2022/10/03 09:16:04;;;;;;;2.25;0.25;;;;;;;16.30;56.96;101293.75;4941659;28;98068;-68
2022/10/03 09:18:45;;;;;;;1.85;0.30;;;;;;;18.52;53.36;101284.03;4915632;28;97664;-68
2022/10/03 09:21:40;;;;;;;2.03;0.30;;;;;;;19.46;51.64;101288.19;4886818;28;99021;-68
2022/10/03 09:24:31;;;;;;;0.90;0.10;;;;;;;19.31;52.91;101292.06;4894753;28;97653;-68
2022/10/03 09:27:21;;;;;;;2.60;0.20;;;;;;;18.48;54.28;101290.41;4928235;28;98180;-69
2022/10/03 09:30:23;;;;;;;5.22;0.50;;;;;;;18.03;54.99;101284.59;4909792;28;99790;-68
2022/10/03 09:33:23;;;;;;;3.63;0.40;;;;;;;18.61;53.13;101276.75;4899579;28;98219;-69
2022/10/03 09:36:25;;;;;;;2.05;0.20;;;;;;;18.87;52.77;101276.31;4882157;28;98149;-65
2022/10/03 09:39:27;;;;;;;2.67;0.30;;;;;;;19.53;51.84;101280.38;4888370;28;98461;-69
2022/10/03 09:42:29;;;;;;;1.92;0.20;;;;;;;20.02;51.64;101270.47;4858492;28;98228;-68
2022/10/03 09:45:07;;;;;;;3.65;0.30;;;;;;;20.22;51.25;101271.09;4866048;28;98069;-65
2022/10/03 09:48:20;;;;;;;0.93;0.10;;;;;;;19.84;52.07;101279.69;4924855;28;97660;-65
2022/10/03 09:51:08;;;;;;;;;;;;;;;20.61;51.52;101272.31;4887405;28;97744;-65
2022/10/03 09:54:09;;;;;;;0.40;0.10;;;;;;;21.04;50.69;101280.69;4925664;28;97831;-68
2022/10/03 09:57:09;;;;;;;2.17;0.20;;;;;;;21.32;50.43;101286.69;4893272;28;98011;-66
2022/10/03 09:59:57;;;;;;;1.63;0.20;;;;;;;21.18;50.73;101286.00;4911997;28;97538;-67
2022/10/03 10:02:40;;;;;;;0.75;0.10;;;;;;;21.39;49.24;101289.00;4881313;28;98823;-68
2022/10/03 10:05:50;;;;;;;1.10;0.10;;;;;;;21.77;49.65;101270.81;4915059;28;98143;-65
2022/10/03 10:09:06;;;;;;;1.92;0.28;;;;;;;21.80;49.67;101270.13;4857715;28;98408;-66
2022/10/03 10:12:12;;;;;;;2.67;0.10;;;;;;;21.39;49.97;101278.84;4894694;28;98355;-68
2022/10/03 10:15:25;;;;;;;0.73;0.10;;;;;;;20.73;50.92;101278.78;4922160;28;97828;-65
2022/10/03 10:18:31;;;;;;;0.88;0.10;;;;;;;20.14;51.33;101288.28;4907474;28;97768;-65
2022/10/03 10:21:14;;;;;;;0.57;0.10;;;;;;;19.64;50.87;101286.44;4844630;28;1348038;-65
2022/10/03 10:24:19;;;;;;;2.13;0.22;;;;;;;20.02;50.68;101273.22;4889238;28;98153;-69
2022/10/03 10:27:27;;;;;;;2.42;0.47;;;;;;;20.37;49.92;101294.53;4885353;28;98069;-65
2022/10/03 10:30:21;;;;;;;1.90;0.10;;;;;;;19.78;50.86;101286.41;4905752;28;98092;-65
2022/10/03 10:33:41;;;;;;;1.02;0.20;;;;;;;19.38;51.17;101289.72;4907064;28;119721;-65
2022/10/03 10:36:54;;;;;;;3.03;0.20;;;;;;;19.62;50.43;101283.22;4909437;28;97886;-65
2022/10/03 10:39:32;;;;;;;0.70;0.13;;;;;;;21.36;47.08;101286.91;4929858;28;97883;-65
2022/10/03 10:42:54;;;;;;;2.25;0.17;;;;;;;21.22;48.29;101287.81;4936650;28;97714;-66
2022/10/03 10:45:57;;;;;;;3.30;0.20;;;;;;;21.94;47.45;101291.13;4923019;28;99421;-66
2022/10/03 10:49:10;;;;;;;1.35;0.10;;;;;;;21.68;47.78;101283.69;4868856;28;97938;-65
2022/10/03 10:52:07;;;;;;;1.90;0.20;;;;;;;22.58;45.81;101280.19;4917178;28;98004;-65
2022/10/03 10:55:11;;;;;;;1.00;0.10;;;;;;;23.48;45.51;101279.06;4945230;28;97677;-66
2022/10/03 10:58:21;;;;;;;0.93;0.10;;;;;;;22.67;46.87;101280.94;4907715;28;97894;-65
2022/10/03 11:01:12;;;;;;;1.30;0.25;;;;;;;24.21;44.43;101278.63;4905358;28;97916;-68
2022/10/03 11:04:25;;;;;;;1.38;0.10;;;;;;;24.56;44.27;101286.50;4921943;28;97848;-66
2022/10/03 11:07:43;;;;;;;0.82;0.10;;;;;;;25.99;42.13;101282.66;4910068;28;97989;-69
2022/10/03 11:10:33;;;;;;;1.30;0.10;;;;;;;26.53;41.42;101271.09;4947802;28;97677;-69
2022/10/03 11:13:42;;;;;;;1.25;0.08;;;;;;;26.01;41.93;101280.34;4926639;28;97750;-68
2022/10/03 11:16:48;;;;;;;0.82;0.10;;;;;;;25.01;44.05;101286.41;4904620;28;97881;-67
2022/10/03 11:19:53;;;;;;;3.15;0.10;;;;;;;26.08;41.99;101284.09;4922816;28;97700;-66
2022/10/03 11:22:57;;;;;;;0.60;0.10;;;;;;;25.59;42.93;101283.47;4926233;28;104179;-69
2022/10/03 11:25:52;;;;;;;1.45;0.10;;;;;;;25.44;42.79;101276.72;4902974;28;98471;-67
2022/10/03 11:29:08;;;;;;;0.88;0.10;;;;;;;24.18;44.43;101271.84;4931894;28;97899;-68
2022/10/03 11:32:01;;;;;;;0.63;0.10;;;;;;;24.84;42.68;101270.91;4923689;28;98066;-68
2022/10/03 11:34:46;;;;;;;0.52;0.10;;;;;;;23.77;44.67;101280.94;4943252;28;98288;-65
2022/10/03 11:37:43;;;;;;;1.15;0.15;;;;;;;22.98;44.93;101274.38;4883205;28;98569;-68
2022/10/03 11:40:36;;;;;;;0.88;0.10;;;;;;;22.30;45.77;101272.34;4869433;28;97970;-66
2022/10/03 11:43:46;;;;;;;0.85;0.10;;;;;;;24.35;42.56;101272.78;4911506;28;97631;-66
2022/10/03 11:46:53;;;;;;;2.65;0.20;;;;;;;22.94;44.77;101284.41;4935352;28;97506;-65
2022/10/03 11:50:06;;;;;;;1.00;0.10;;;;;;;22.73;44.74;101268.63;4910316;28;97535;-69
2022/10/03 11:53:34;;;;;;;1.77;0.30;;;;;;;22.44;44.97;101276.81;4928286;28;99730;-66
2022/10/03 11:56:25;;;;;;;1.08;0.20;;;;;;;21.37;46.35;101280.28;4900305;28;97643;-68
2022/10/03 11:59:11;;;;;;;1.08;0.20;;;;;;;21.52;46.01;101275.13;4880656;28;101218;-66
2022/10/03 12:02:06;;;;;;;1.15;0.10;;;;;;;21.45;45.91;101276.75;4877200;28;98393;-65
2022/10/03 12:04:52;;;;;;;0.70;0.10;;;;;;;21.84;45.26;101273.03;4902270;28;98346;-66
2022/10/03 12:10:56;;;;;;;3.22;0.10;;;;;;;20.48;47.01;101272.06;4929468;28;97886;-65
2022/10/03 12:14:02;;;;;;;2.22;0.20;;;;;;;20.78;46.32;101275.91;4916530;28;97173;-66
2022/10/03 12:16:48;;;;;;;1.70;0.13;;;;;;;20.93;45.70;101271.13;4944663;28;97512;-68
2022/10/03 12:20:02;;;;;;;2.15;0.20;;;;;;;20.56;46.60;101278.72;4902255;28;97762;-65
2022/10/03 12:22:52;;;;;;;3.53;0.25;;;;;;;20.71;46.08;101278.31;4876899;28;97767;-68
2022/10/03 12:25:30;;;;;;;1.23;0.10;;;;;;;20.54;46.37;101278.22;4899155;28;97717;-67
2022/10/03 12:28:24;;;;;;;2.20;0.05;;;;;;;21.13;45.46;101280.69;4912610;28;100101;-65
2022/10/03 12:31:06;;;;;;;1.70;0.10;;;;;;;20.64;46.17;101280.69;4895903;28;97765;-68
2022/10/03 12:34:03;;;;;;;0.95;0.10;;;;;;;20.16;46.79;101283.28;4902041;28;99987;-68
2022/10/03 12:37:06;;;;;;;3.45;0.10;;;;;;;19.80;47.42;101286.88;4905086;28;97910;-68
2022/10/03 12:40:23;;;;;;;0.40;0.10;;;;;;;19.41;47.55;101287.47;4898063;28;97801;-68
2022/10/03 12:43:34;;;;;;;0.32;0.05;;;;;;;19.05;47.85;101290.97;4906236;28;97859;-66
2022/10/03 12:46:35;;;;;;;1.42;0.10;;;;;;;18.67;48.57;101295.75;4926721;28;98430;-65
2022/10/03 12:49:30;;;;;;;3.65;0.20;;;;;;;18.48;48.90;101293.13;4880839;28;98106;-65
2022/10/03 12:52:08;;;;;;;0.57;0.10;;;;;;;18.49;49.24;101292.00;4889066;28;103221;-68
2022/10/03 12:55:23;;;;;;;1.00;0.10;;;;;;;18.40;49.03;101292.72;4907821;28;98324;-65
2022/10/03 12:58:17;;;;;;;0.20;0.10;;;;;;;18.25;49.12;101297.63;4899120;28;97620;-68
2022/10/03 13:01:10;;;;;;;2.83;0.20;;;;;;;18.08;49.76;101298.97;4908709;28;97985;-67
2022/10/03 13:03:52;;;;;;;1.35;0.20;;;;;;;17.94;49.70;101305.47;4926951;28;97743;-69
2022/10/03 13:06:54;;;;;;;2.75;0.10;;;;;;;17.77;49.98;101298.66;4912312;28;98553;-67
2022/10/03 13:09:56;;;;;;;1.95;0.20;;;;;;;17.60;50.43;101295.56;4886025;28;97820;-65
2022/10/03 13:12:48;;;;;;;2.17;0.30;;;;;;;17.55;50.54;101288.28;4877410;28;97668;-65
2022/10/03 13:15:52;;;;;;;2.40;0.30;;;;;;;17.52;50.75;101288.88;4879434;28;98043;-65
2022/10/03 13:18:53;;;;;;;0.73;0.10;;;;;;;17.59;50.69;101292.03;4873323;28;98590;-68
2022/10/03 13:21:48;;;;;;;0.70;0.20;;;;;;;17.62;50.82;101286.00;4923773;28;97937;-65
2022/10/03 13:24:57;;;;;;;6.30;0.20;;;;;;;17.72;50.67;101284.22;4931714;28;98120;-66
2022/10/03 13:27:46;;;;;;;3.15;0.25;;;;;;;17.65;50.99;101276.44;4902109;28;97970;-65
2022/10/03 13:30:31;;;;;;;3.40;0.35;;;;;;;17.61;51.02;101269.97;4897837;28;97938;-65
2022/10/03 13:33:15;;;;;;;0.82;0.17;;;;;;;17.72;51.10;101270.59;4902704;28;97947;-65
2022/10/03 13:36:22;;;;;;;1.08;0.20;;;;;;;17.55;51.63;101276.56;4912714;28;97798;-68
2022/10/03 13:39:06;;;;;;;3.72;0.35;;;;;;;17.34;51.66;101273.34;4907369;28;97820;-68
2022/10/03 13:42:08;;;;;;;1.33;0.20;;;;;;;17.15;51.88;101279.56;4880635;28;98400;-69
2022/10/03 13:44:54;;;;;;;1.50;0.10;;;;;;;17.10;51.89;101278.81;4911101;28;97257;-68
2022/10/03 13:47:42;;;;;;;2.42;0.20;;;;;;;17.43;51.26;101277.81;4896891;28;97440;-66
2022/10/03 13:50:20;;;;;;;0.45;0.10;;;;;;;17.46;51.15;101281.88;4940435;28;99086;-66
2022/10/03 13:53:04;;;;;;;1.50;0.25;;;;;;;17.51;51.43;101281.00;4860693;28;98371;-68